Heppner, Oregon
Current Conditions -  °F | °C
As of 7:53 PM on Wednesday 17 Dec 2014 (Local Time) from KHRI Reporting Station
Light Rain Light Rain  
Wind Chill: 36°   Ceiling: 1100
Heat Index: 39°   Visibility: 5mi
Dew Point: 36°   Wind: 5mph
Humidity: 89%   Direction: 200°SSW
Pressure: 30"   Gusts: NA
Location:  45.35°N, 119.56°W
Report Text: KHRI 180353Z AUTO 20004KT 5SM -RA BR OVC011 04/02 A3000 RMK AO2 RAB49 SLP163 P0000 T00390022
Loading
Personal Weather Stations






























Interactive Weather Map New forecast layout! Learn more

10-Day Weather Forecast

Advertisements
Track Severe Weather on mobile